createdAt,value
2018-10-01T00:38:56.192Z,5.7
2018-10-01T01:17:20.493Z,6.4
2018-10-01T01:20:17.577Z,6.5
2018-10-01T01:52:47.575Z,7.6
2018-10-01T01:53:18.208Z,7.6
2018-10-01T02:11:30.230Z,7.8
2018-10-01T02:27:16.302Z,8
2018-10-01T03:46:05.057Z,7.2
2018-10-01T03:53:57.970Z,7.1
2018-10-01T03:57:54.328Z,7.1
2018-10-01T03:58:24.974Z,7.1
2018-10-01T03:59:52.493Z,7
2018-10-01T04:00:51.324Z,7
2018-10-01T04:05:47.294Z,7
2018-10-01T04:06:46.228Z,7
2018-10-01T04:10:42.600Z,7
2018-10-01T04:11:12.835Z,7
2018-10-01T04:11:43.090Z,6.9
2018-10-01T04:13:39.664Z,7
2018-10-01T04:14:39.102Z,6.9
2018-10-01T04:16:37.422Z,6.9
2018-10-01T04:17:36.347Z,6.9
2018-10-01T04:19:34.647Z,6.9
2018-10-01T04:20:05.167Z,6.9
2018-10-01T04:20:35.701Z,6.9
2018-10-01T04:21:05.818Z,6.9
2018-10-01T04:21:36.561Z,6.9
2018-10-01T04:22:31.783Z,6.9
2018-10-01T04:23:30.910Z,6.9
2018-10-01T04:24:29.827Z,6.9
2018-10-01T04:25:29.032Z,6.8
2018-10-01T04:26:28.237Z,6.8
2018-10-01T04:27:27.444Z,6.8
2018-10-01T04:28:26.550Z,6.8
2018-10-01T04:29:25.272Z,6.8
2018-10-01T04:30:24.520Z,6.7
2018-10-01T04:31:23.731Z,6.7
2018-10-01T04:32:22.936Z,6.7
2018-10-01T04:33:21.636Z,6.7
2018-10-01T04:34:20.940Z,6.7
2018-10-01T04:35:20.151Z,6.7
2018-10-01T04:36:19.074Z,6.7
2018-10-01T04:37:18.411Z,6.7
2018-10-01T04:38:17.110Z,6.7
2018-10-01T04:41:14.792Z,6.6
2018-10-01T04:42:13.607Z,6.6
2018-10-01T04:43:12.912Z,6.5
2018-10-01T04:44:11.721Z,6.5
2018-10-01T04:45:11.027Z,6.5
2018-10-01T04:45:41.258Z,6.5
2018-10-01T04:46:11.892Z,6.5
2018-10-01T04:48:08.467Z,6.5
2018-10-01T04:52:04.824Z,6.4
2018-10-01T04:53:04.062Z,6.4
2018-10-01T04:54:02.988Z,6.4
2018-10-01T04:55:02.199Z,6.4
2018-10-01T04:56:01.005Z,6.4
2018-10-01T04:57:00.423Z,6.4
2018-10-01T04:57:59.608Z,6.4
2018-10-01T04:58:58.309Z,6.4
2018-10-01T04:59:57.619Z,6.4
2018-10-01T05:00:56.929Z,6.3
2018-10-01T05:01:55.927Z,6.3
2018-10-01T05:02:54.626Z,6.3
2018-10-01T05:03:54.046Z,6.3
2018-10-01T05:04:52.739Z,6.3
2018-10-01T05:05:23.159Z,6.3
2018-10-01T05:05:53.578Z,6.3
2018-10-01T05:06:51.266Z,6.3
2018-10-01T05:07:50.195Z,6.3
2018-10-01T05:08:49.405Z,6.3
2018-10-01T05:10:47.497Z,6.3
2018-10-01T05:11:46.802Z,6.3
2018-10-01T05:12:45.593Z,6.3
2018-10-01T05:13:44.921Z,6.3
2018-10-01T05:14:44.274Z,6.3
2018-10-01T05:15:14.861Z,6.3
2018-10-01T05:15:45.270Z,6.3
2018-10-01T05:16:15.684Z,6.3
2018-10-01T05:16:46.217Z,6.3
2018-10-01T05:17:16.846Z,6.3
2018-10-01T05:18:40.210Z,6.3
2018-10-01T05:20:38.298Z,6.3
2018-10-01T05:21:37.608Z,6.3
2018-10-01T05:22:36.920Z,6.3
2018-10-01T05:23:35.618Z,6.3
2018-10-01T05:24:34.926Z,6.4
2018-10-01T05:25:33.692Z,6.4
2018-10-01T05:26:04.322Z,6.4
2018-10-01T05:26:34.956Z,6.4
2018-10-01T05:27:05.906Z,6.4
2018-10-01T05:27:36.142Z,6.4
2018-10-01T05:28:06.449Z,6.4
2018-10-01T05:29:30.423Z,6.4
2018-10-01T05:30:29.735Z,6.4
2018-10-01T05:31:28.436Z,6.4
2018-10-01T05:32:27.749Z,6.4
2018-10-01T05:33:26.849Z,6.4
2018-10-01T05:34:25.846Z,6.4
2018-10-01T05:35:25.054Z,6.4
2018-10-01T05:36:23.865Z,6.5
2018-10-01T05:37:23.079Z,6.4
2018-10-01T05:38:22.275Z,6.4
2018-10-01T05:39:21.377Z,6.4
2018-10-01T05:40:20.091Z,6.4
2018-10-01T05:41:19.405Z,6.5
2018-10-01T05:42:18.607Z,6.4
2018-10-01T05:43:17.521Z,6.5
2018-10-01T05:44:16.620Z,6.5
2018-10-01T05:44:47.353Z,6.5
2018-10-01T05:45:17.869Z,6.5
2018-10-01T05:45:48.495Z,6.5
2018-10-01T05:47:14.087Z,6.6
2018-10-01T05:48:13.405Z,6.6
2018-10-01T05:49:12.510Z,6.6
2018-10-01T05:50:11.264Z,6.6
2018-10-01T05:51:10.579Z,6.6
2018-10-01T05:52:09.381Z,6.6
2018-10-01T05:53:08.792Z,6.7
2018-10-01T05:54:07.490Z,6.7
2018-10-01T05:55:06.706Z,6.7
2018-10-01T05:55:37.019Z,6.7
2018-10-01T05:56:07.542Z,6.7
2018-10-01T05:56:38.174Z,6.7
2018-10-01T05:57:08.465Z,6.7
2018-10-01T05:57:39.058Z,6.7
2018-10-01T06:00:02.047Z,6.8
2018-10-01T06:01:01.251Z,6.8
2018-10-01T06:02:00.457Z,6.9
2018-10-01T06:02:59.776Z,6.9
2018-10-01T06:05:56.635Z,7
2018-10-01T06:06:27.048Z,7
2018-10-01T06:06:57.622Z,7
2018-10-01T06:07:28.038Z,7
2018-10-01T06:07:58.762Z,7
2018-10-01T06:08:28.984Z,7
2018-10-01T06:13:49.598Z,7.1
2018-10-01T06:15:47.908Z,7.1
2018-10-01T06:16:46.715Z,7.1
2018-10-01T06:18:44.984Z,7.1
2018-10-01T06:20:43.080Z,7.2
2018-10-01T06:22:41.380Z,7.2
2018-10-01T06:23:40.811Z,7.2
2018-10-01T06:25:38.875Z,7.3
2018-10-01T06:27:36.965Z,7.3
2018-10-01T06:28:36.391Z,7.3
2018-10-01T06:29:35.250Z,7.3
2018-10-01T06:30:34.172Z,7.3
2018-10-01T06:32:32.367Z,7.3
2018-10-01T06:33:31.567Z,7.3
2018-10-01T06:34:30.891Z,7.4
2018-10-01T06:35:30.100Z,7.4
2018-10-01T06:36:28.917Z,7.4
2018-10-01T06:37:28.344Z,7.4
2018-10-01T06:37:59.102Z,7.4
2018-10-01T06:39:26.277Z,7.4
2018-10-01T06:42:23.564Z,7.4
2018-10-01T06:43:22.367Z,7.5
2018-10-01T06:44:22.086Z,7.5
2018-10-01T06:45:20.898Z,7.5
2018-10-01T06:46:19.888Z,7.6
2018-10-01T06:47:19.205Z,7.6
2018-10-01T06:48:18.141Z,7.6
2018-10-01T06:49:17.349Z,7.6
2018-10-01T06:50:16.659Z,7.7
2018-10-01T06:51:15.720Z,7.7
2018-10-01T06:53:13.553Z,7.7
2018-10-01T06:53:44.002Z,7.7
2018-10-01T06:54:14.517Z,7.7
2018-10-01T06:55:11.913Z,7.7
2018-10-01T06:56:11.249Z,7.8
2018-10-01T06:57:09.959Z,7.8
2018-10-01T06:58:09.284Z,7.8
2018-10-01T06:59:08.610Z,7.8
2018-10-01T07:01:06.644Z,7.8
2018-10-01T07:02:05.892Z,7.8
2018-10-01T07:03:04.802Z,7.8
2018-10-01T07:03:35.314Z,7.8
2018-10-01T07:04:05.827Z,7.8
2018-10-01T07:04:36.463Z,7.8
2018-10-01T07:06:02.092Z,7.8
2018-10-01T07:09:58.596Z,7.8
2018-10-01T07:11:57.078Z,7.9
2018-10-01T07:13:55.293Z,7.9
2018-10-01T07:14:25.710Z,7.9
2018-10-01T07:23:45.962Z,8
2018-10-01T07:27:42.607Z,8.1
2018-10-01T07:28:41.923Z,8.1
2018-10-01T07:29:40.729Z,8.1
2018-10-01T07:30:40.042Z,8.2
2018-10-01T07:32:38.339Z,8.2
2018-10-01T07:33:08.569Z,8.2
2018-10-01T07:34:36.580Z,8.2
2018-10-01T07:35:35.904Z,8.3
2018-10-01T07:36:34.817Z,8.3
2018-10-01T07:37:34.132Z,8.3
2018-10-01T07:38:32.938Z,8.3
2018-10-01T07:39:32.255Z,8.3
2018-10-01T07:40:31.172Z,8.4
2018-10-01T07:41:30.499Z,8.3
2018-10-01T07:43:28.740Z,8.4
2018-10-01T07:43:59.373Z,8.4
2018-10-01T07:44:29.899Z,8.4
2018-10-01T07:45:00.950Z,8.4
2018-10-01T07:45:31.256Z,8.4
2018-10-01T07:46:01.887Z,8.4
2018-10-01T07:46:31.861Z,8.5
2018-10-01T07:47:02.530Z,8.5
2018-10-01T07:48:24.180Z,8.5
2018-10-01T07:49:23.365Z,8.6
2018-10-01T07:50:22.684Z,8.6
2018-10-01T07:51:21.435Z,8.6
2018-10-01T07:52:20.718Z,8.7
2018-10-01T07:53:20.113Z,8.7
2018-10-01T07:54:18.632Z,8.7
2018-10-01T07:54:49.176Z,8.7
2018-10-01T07:55:19.600Z,8.8
2018-10-01T07:55:50.241Z,8.8
2018-10-01T07:56:20.767Z,8.8
2018-10-01T07:56:51.394Z,8.8
2018-10-01T07:58:15.480Z,8.8
2018-10-01T07:59:14.695Z,8.9
2018-10-01T08:00:14.584Z,8.9
2018-10-01T08:02:12.174Z,9
2018-10-01T08:03:11.279Z,9
2018-10-01T08:04:10.596Z,9
2018-10-01T08:05:09.295Z,9.1
2018-10-01T08:06:08.499Z,9.1
2018-10-01T08:07:07.607Z,9.1
2018-10-01T08:08:07.004Z,9.2
2018-10-01T08:09:05.820Z,9.2
2018-10-01T08:10:04.919Z,9.2
2018-10-01T08:11:04.371Z,9.2
2018-10-01T08:12:03.299Z,9.2
2018-10-01T08:13:02.510Z,9.3
2018-10-01T08:14:01.781Z,9.3
2018-10-01T08:14:32.318Z,9.3
2018-10-01T08:15:59.832Z,9.3
2018-10-01T08:16:59.148Z,9.4
2018-10-01T08:17:58.354Z,9.4
2018-10-01T08:18:57.166Z,9.4
2018-10-01T08:19:56.649Z,9.5
2018-10-01T08:20:55.448Z,9.5
2018-10-01T08:21:54.876Z,9.6
2018-10-01T08:22:53.786Z,9.6
2018-10-01T08:23:53.209Z,9.7
2018-10-01T08:24:52.197Z,9.6
2018-10-01T08:25:22.824Z,9.6
2018-10-01T08:25:53.448Z,9.7
2018-10-01T08:26:23.899Z,9.7
2018-10-01T08:27:49.258Z,9.8
2018-10-01T08:28:48.570Z,9.8
2018-10-01T08:29:47.662Z,9.9
2018-10-01T08:30:47.225Z,10
2018-10-01T08:31:46.423Z,10
2018-10-01T08:32:45.342Z,10.1
2018-10-01T08:33:44.778Z,10.2
2018-10-01T08:34:43.589Z,10.2
2018-10-01T08:35:42.790Z,10.3
2018-10-01T08:36:13.321Z,10.3
2018-10-01T08:37:41.206Z,10.4
2018-10-01T08:38:40.919Z,10.4
2018-10-01T08:39:39.171Z,10.4
2018-10-01T08:40:38.390Z,10.4
2018-10-01T08:41:37.856Z,10.5
2018-10-01T08:42:36.571Z,10.5
2018-10-01T08:43:35.882Z,10.6
2018-10-01T08:44:35.036Z,10.6
2018-10-01T08:45:34.385Z,10.5
2018-10-01T08:47:33.028Z,10.6
2018-10-01T08:48:31.784Z,10.6
2018-10-01T08:49:31.212Z,10.6
2018-10-01T08:50:30.153Z,10.7
2018-10-01T08:51:29.382Z,10.7
2018-10-01T08:52:00.233Z,10.7
2018-10-01T08:52:30.456Z,10.8
2018-10-01T08:53:27.894Z,10.8
2018-10-01T08:54:26.866Z,10.8
2018-10-01T08:55:25.968Z,10.8
2018-10-01T08:56:25.500Z,10.9
2018-10-01T08:57:24.212Z,10.9
2018-10-01T08:58:23.312Z,10.9
2018-10-01T08:59:22.549Z,10.9
2018-10-01T09:00:21.548Z,11
2018-10-01T09:01:20.859Z,11
2018-10-01T09:02:20.373Z,11
2018-10-01T09:03:19.291Z,11.1
2018-10-01T09:04:18.511Z,11
2018-10-01T09:05:17.399Z,10.9
2018-10-01T09:07:15.714Z,11
2018-10-01T09:08:15.460Z,10.9
2018-10-01T09:09:14.352Z,11
2018-10-01T09:10:13.670Z,11
2018-10-01T09:11:12.913Z,11
2018-10-01T09:12:11.685Z,10.9
2018-10-01T09:13:11.007Z,11
2018-10-01T09:15:08.986Z,11
2018-10-01T09:16:08.405Z,11.1
2018-10-01T09:17:08.138Z,11.1
2018-10-01T09:18:06.674Z,11.1
2018-10-01T09:19:06.091Z,11.1
2018-10-01T09:20:05.436Z,11.1
2018-10-01T09:21:04.559Z,11.1
2018-10-01T09:21:35.167Z,11.1
2018-10-01T09:22:05.736Z,11.1
2018-10-01T09:22:35.968Z,11.1
2018-10-01T09:23:06.462Z,11.1
2018-10-01T09:23:36.651Z,11.1
2018-10-01T09:25:00.733Z,11.2
2018-10-01T09:26:00.349Z,11.2
2018-10-01T09:26:59.348Z,11.1
2018-10-01T09:27:58.761Z,11.1
2018-10-01T09:28:57.704Z,11.1
2018-10-01T09:29:57.126Z,11.1
2018-10-01T09:30:56.055Z,11.1
2018-10-01T09:31:26.234Z,11.1
2018-10-01T09:31:56.957Z,11.1
2018-10-01T09:32:27.543Z,11.1
2018-10-01T09:32:57.799Z,11.2
2018-10-01T09:33:28.212Z,11.2
2018-10-01T09:33:58.724Z,11.2
2018-10-01T09:34:29.251Z,11.2
2018-10-01T09:35:51.829Z,11.3
2018-10-01T09:36:51.255Z,11.3
2018-10-01T09:37:50.563Z,11.4
2018-10-01T09:38:49.368Z,11.4
2018-10-01T09:39:48.696Z,11.4
2018-10-01T09:40:47.901Z,11.5
2018-10-01T09:41:47.114Z,11.5
2018-10-01T09:42:46.217Z,11.6
2018-10-01T09:43:45.317Z,11.6
2018-10-01T09:44:44.526Z,11.5
2018-10-01T09:45:15.046Z,11.5
2018-10-01T09:46:42.719Z,11.7
2018-10-01T09:47:42.324Z,11.7
2018-10-01T09:48:41.244Z,11.8
2018-10-01T09:49:40.455Z,11.8
2018-10-01T09:50:39.448Z,11.7
2018-10-01T09:51:38.660Z,11.7
2018-10-01T09:52:38.082Z,11.7
2018-10-01T09:53:37.261Z,11.7
2018-10-01T09:54:36.638Z,11.7
2018-10-01T09:55:35.562Z,11.8
2018-10-01T09:57:34.040Z,11.8
2018-10-01T09:58:33.274Z,11.9
2018-10-01T09:59:32.604Z,11.9
2018-10-01T10:00:31.520Z,11.9
2018-10-01T10:01:30.728Z,11.9
2018-10-01T10:02:30.059Z,11.9
2018-10-01T10:03:00.468Z,11.9
2018-10-01T10:03:30.993Z,11.9
2018-10-01T10:04:01.775Z,11.9
2018-10-01T10:04:32.204Z,12
2018-10-01T10:05:02.673Z,12
2018-10-01T10:06:26.654Z,12
2018-10-01T10:08:25.533Z,12
2018-10-01T10:09:24.572Z,12.1
2018-10-01T10:10:23.365Z,12.1
2018-10-01T10:11:22.679Z,12.2
2018-10-01T10:12:22.131Z,12.1
2018-10-01T10:13:21.441Z,12.1
2018-10-01T10:13:51.948Z,12.1
2018-10-01T10:14:22.264Z,12.2
2018-10-01T10:14:52.425Z,12.2
2018-10-01T10:15:23.156Z,12.2
2018-10-01T10:15:53.783Z,12.2
2018-10-01T10:17:17.992Z,12.2
2018-10-01T10:18:16.985Z,12.3
2018-10-01T10:19:16.188Z,12.3
2018-10-01T10:20:15.978Z,12.4
2018-10-01T10:21:14.467Z,12.4
2018-10-01T10:22:14.201Z,12.4
2018-10-01T10:23:12.926Z,12.5
2018-10-01T10:24:12.265Z,12.5
2018-10-01T10:25:11.465Z,12.5
2018-10-01T10:26:10.680Z,12.6
2018-10-01T10:26:41.020Z,12.6
2018-10-01T10:27:11.767Z,12.6
2018-10-01T10:28:09.827Z,12.6
2018-10-01T10:29:08.012Z,12.7
2018-10-01T10:30:07.732Z,12.8
2018-10-01T10:31:06.735Z,12.8
2018-10-01T10:32:05.995Z,12.8
2018-10-01T10:33:05.095Z,12.9
2018-10-01T10:34:04.335Z,12.9
2018-10-01T10:35:03.772Z,12.8
2018-10-01T10:36:02.593Z,12.7
2018-10-01T10:37:01.694Z,12.8
2018-10-01T10:38:01.010Z,12.7
2018-10-01T10:39:00.474Z,12.6
2018-10-01T10:39:59.898Z,12.6
2018-10-01T10:40:58.833Z,12.6
2018-10-01T10:41:58.380Z,12.5
2018-10-01T10:42:56.977Z,12.5
2018-10-01T10:43:56.942Z,12.5
2018-10-01T10:44:55.963Z,12.4
2018-10-01T10:45:55.118Z,12.3
2018-10-01T10:46:25.850Z,12.3
2018-10-01T10:47:53.321Z,12.3
2018-10-01T10:48:52.455Z,12.3
2018-10-01T10:49:51.659Z,12.2
2018-10-01T10:50:50.880Z,12.1
2018-10-01T10:51:50.198Z,12
2018-10-01T10:52:49.511Z,12
2018-10-01T10:53:48.424Z,11.9
2018-10-01T10:54:47.638Z,11.8
2018-10-01T10:55:46.995Z,11.8
2018-10-01T10:56:46.554Z,11.8
2018-10-01T10:57:45.533Z,11.7
2018-10-01T10:58:44.746Z,11.7
2018-10-01T10:59:43.659Z,11.7
2018-10-01T11:00:43.258Z,11.7
2018-10-01T11:01:42.064Z,11.7
2018-10-01T11:02:41.555Z,11.7
2018-10-01T11:03:40.489Z,11.7
2018-10-01T11:04:39.687Z,11.7
2018-10-01T11:05:39.001Z,11.6
2018-10-01T11:06:38.201Z,11.5
2018-10-01T11:07:37.626Z,11.5
2018-10-01T11:08:37.157Z,11.5
2018-10-01T11:09:35.931Z,11.5
2018-10-01T11:10:35.125Z,11.4
2018-10-01T11:11:34.326Z,11.3
2018-10-01T11:12:04.743Z,11.3
2018-10-01T11:12:35.277Z,11.3
2018-10-01T11:13:05.788Z,11.3
2018-10-01T11:13:36.305Z,11.3
2018-10-01T11:14:32.154Z,11.2
2018-10-01T11:15:31.383Z,11.2
2018-10-01T11:16:30.423Z,11.2
2018-10-01T11:17:29.958Z,11.2
2018-10-01T11:18:29.229Z,11.2
2018-10-01T11:19:27.955Z,11.2
2018-10-01T11:20:27.700Z,11.1
2018-10-01T11:21:26.568Z,11.1
2018-10-01T11:21:56.811Z,11.1
2018-10-01T11:22:26.708Z,11
2018-10-01T11:22:57.771Z,11
2018-10-01T11:23:27.705Z,11
2018-10-01T11:23:58.342Z,11
2018-10-01T11:25:23.820Z,10.9
2018-10-01T11:26:22.272Z,10.9
2018-10-01T11:27:21.775Z,10.9
2018-10-01T11:28:20.778Z,10.9
2018-10-01T11:29:20.104Z,11
2018-10-01T11:30:18.913Z,11
2018-10-01T11:31:18.290Z,11
2018-10-01T11:32:17.281Z,10.9
2018-10-01T11:33:17.108Z,10.9
2018-10-01T11:34:16.227Z,10.9
2018-10-01T11:35:15.973Z,10.9
2018-10-01T11:36:14.327Z,10.8
2018-10-01T11:37:13.658Z,10.8
2018-10-01T11:38:12.393Z,10.8
2018-10-01T11:39:11.654Z,10.8
2018-10-01T11:40:10.914Z,10.8
2018-10-01T11:41:10.023Z,10.8
2018-10-01T11:41:40.438Z,10.8
2018-10-01T11:43:08.459Z,10.8
2018-10-01T11:44:07.663Z,10.8
2018-10-01T11:46:05.966Z,10.8
2018-10-01T11:47:05.060Z,10.8
2018-10-01T11:48:04.669Z,10.7
2018-10-01T11:49:03.580Z,10.8
2018-10-01T11:50:02.800Z,10.8
2018-10-01T11:51:02.165Z,10.8
2018-10-01T11:51:32.526Z,10.8
2018-10-01T11:52:02.599Z,10.8
2018-10-01T11:52:33.122Z,10.8
2018-10-01T11:53:03.857Z,10.8
2018-10-01T11:53:34.480Z,10.8
2018-10-01T11:54:05.298Z,10.9
2018-10-01T11:54:35.508Z,10.9
2018-10-01T11:55:05.922Z,10.9
2018-10-01T11:55:36.441Z,10.9
2018-10-01T11:56:57.349Z,10.9
2018-10-01T11:57:56.599Z,11
2018-10-01T11:58:55.422Z,11
2018-10-01T11:59:54.731Z,11.1
2018-10-01T12:00:53.937Z,11.1
2018-10-01T12:01:53.250Z,11.1
2018-10-01T12:02:52.555Z,11.1
2018-10-01T12:03:23.221Z,11.1
2018-10-01T12:03:53.659Z,11.2
2018-10-01T12:04:23.936Z,11.2
2018-10-01T12:04:54.053Z,11.2
2018-10-01T12:05:24.695Z,11.2
2018-10-01T12:05:55.131Z,11.2
2018-10-01T12:06:25.751Z,11.2
2018-10-01T12:07:48.221Z,11.1
2018-10-01T12:08:47.639Z,11.2
2018-10-01T12:09:46.284Z,11.2
2018-10-01T12:10:45.543Z,11.2
2018-10-01T12:12:44.245Z,11.3
2018-10-01T12:13:43.454Z,11.3
2018-10-01T12:45:18.228Z,11.5
2018-10-01T12:45:48.256Z,11.5
2018-10-01T12:55:09.242Z,11.5
2018-10-01T13:00:05.485Z,11.4
2018-10-01T13:06:59.596Z,11.5
2018-10-01T13:07:59.058Z,11.5
2018-10-01T13:10:56.765Z,11.5
2018-10-01T13:14:53.419Z,11.5
2018-10-01T13:18:49.803Z,11.6
2018-10-01T13:22:46.683Z,11.6
2018-10-01T13:23:45.897Z,11.6
2018-10-01T13:27:42.996Z,11.7
2018-10-01T13:29:41.316Z,11.6
2018-10-01T13:30:40.502Z,11.6
2018-10-01T13:31:10.613Z,11.6
2018-10-01T13:32:38.749Z,11.5
2018-10-01T13:33:09.291Z,11.5
2018-10-01T13:33:39.815Z,11.5
2018-10-01T13:35:36.521Z,11.5
2018-10-01T13:36:35.820Z,11.5
2018-10-01T13:38:34.297Z,11.6
2018-10-01T13:39:33.272Z,11.6
2018-10-01T13:43:30.024Z,11.6
2018-10-01T13:44:00.809Z,11.6
2018-10-01T13:44:31.390Z,11.6
2018-10-01T13:45:01.512Z,11.6
2018-10-01T13:47:26.951Z,11.6
2018-10-01T13:49:25.264Z,11.6
2018-10-01T13:55:20.200Z,11.6
2018-10-01T13:55:50.465Z,11.6
2018-10-01T13:58:18.488Z,11.6
2018-10-01T14:01:15.692Z,11.6
2018-10-01T14:05:12.032Z,11.6
2018-10-01T14:06:11.642Z,11.6
2018-10-01T14:17:02.499Z,11.8
2018-10-01T14:20:59.608Z,11.8
2018-10-01T14:21:58.852Z,11.9
2018-10-01T14:22:57.863Z,11.9
2018-10-01T14:23:28.421Z,11.9
2018-10-01T14:23:59.066Z,11.9
2018-10-01T14:24:30.215Z,11.9
2018-10-01T14:27:53.820Z,11.8
2018-10-01T14:28:53.836Z,11.7
2018-10-01T14:31:50.611Z,11.6
2018-10-01T14:32:49.945Z,11.6
2018-10-01T14:34:48.042Z,11.7
2018-10-01T14:35:19.324Z,11.7
2018-10-01T14:37:45.529Z,11.7
2018-10-01T14:39:44.229Z,11.7
2018-10-01T14:42:41.802Z,11.8
2018-10-01T14:43:41.005Z,11.8
2018-10-01T14:46:38.373Z,11.7
2018-10-01T14:49:35.967Z,11.7
2018-10-01T14:50:35.281Z,11.6
2018-10-01T14:54:32.400Z,11.6
2018-10-01T14:57:29.769Z,11.6
2018-10-01T14:58:29.094Z,11.6
2018-10-01T15:00:28.193Z,11.6
2018-10-01T15:01:26.493Z,11.6
2018-10-01T15:02:25.595Z,11.6
2018-10-01T15:04:24.089Z,11.6
2018-10-01T15:07:21.559Z,11.7
2018-10-01T15:09:20.388Z,12.2
2018-10-01T15:10:19.309Z,12.2
2018-10-01T15:11:18.634Z,12.1
2018-10-01T15:13:16.830Z,12.1
2018-10-01T15:14:16.040Z,12
2018-10-01T15:15:15.462Z,12
2018-10-01T15:16:14.919Z,12
2018-10-01T15:18:12.932Z,11.9
2018-10-01T15:20:11.199Z,11.9
2018-10-01T15:21:10.623Z,11.8
2018-10-01T15:21:41.257Z,11.8
2018-10-01T15:22:11.712Z,11.8
2018-10-01T15:22:42.103Z,11.8
2018-10-01T15:24:08.296Z,11.8
2018-10-01T15:25:07.210Z,11.8
2018-10-01T15:26:06.426Z,11.8
2018-10-01T15:28:04.724Z,11.8
2018-10-01T15:29:04.146Z,11.8
2018-10-01T15:31:02.128Z,11.8
2018-10-01T15:31:32.881Z,11.8
2018-10-01T15:33:00.876Z,11.7
2018-10-01T15:33:31.290Z,11.7
2018-10-01T15:34:01.802Z,11.7
2018-10-01T15:34:59.286Z,11.6
2018-10-01T15:38:56.147Z,11.6
2018-10-01T15:39:55.458Z,11.5
2018-10-01T15:40:54.666Z,11.6
2018-10-01T15:41:54.112Z,11.6
2018-10-01T15:42:53.067Z,11.6
2018-10-01T15:43:52.388Z,11.6
2018-10-01T15:44:51.362Z,11.6
2018-10-01T15:45:50.469Z,11.6
2018-10-01T15:46:49.890Z,11.6
2018-10-01T15:47:49.189Z,11.6
2018-10-01T15:48:48.009Z,11.6
2018-10-01T15:49:47.613Z,11.6
2018-10-01T15:50:46.574Z,11.6
2018-10-01T15:51:17.197Z,11.6
2018-10-01T15:51:47.439Z,11.6
2018-10-01T15:52:17.559Z,11.6
2018-10-01T15:52:48.191Z,11.6
2018-10-01T15:53:44.278Z,11.6
2018-10-01T15:54:43.845Z,11.6
2018-10-01T15:55:42.883Z,11.6
2018-10-01T15:56:41.648Z,11.6
2018-10-01T15:57:40.960Z,11.6
2018-10-01T15:58:40.287Z,11.6
2018-10-01T15:59:39.592Z,11.6
2018-10-01T16:00:38.396Z,11.6
2018-10-01T16:01:08.802Z,11.6
2018-10-01T16:01:39.483Z,11.6
2018-10-01T16:02:09.893Z,11.6
2018-10-01T16:02:40.625Z,11.6
2018-10-01T16:03:10.801Z,11.6
2018-10-01T16:03:41.403Z,11.7
2018-10-01T16:04:12.030Z,11.7
2018-10-01T16:04:42.443Z,11.6
2018-10-01T16:05:13.066Z,11.6
2018-10-01T16:06:33.915Z,11.6
2018-10-01T16:07:32.822Z,11.6
2018-10-01T16:08:32.137Z,11.6
2018-10-01T16:09:31.455Z,11.6
2018-10-01T16:10:30.366Z,11.6
2018-10-01T16:11:29.683Z,11.5
2018-10-01T16:12:29.103Z,11.5
2018-10-01T16:12:59.507Z,11.5
2018-10-01T16:13:29.738Z,11.5
2018-10-01T16:13:59.866Z,11.5
2018-10-01T16:14:30.520Z,11.5
2018-10-01T16:15:01.042Z,11.5
2018-10-01T16:15:31.495Z,11.4
2018-10-01T16:16:02.026Z,11.4
2018-10-01T16:17:24.798Z,11.4
2018-10-01T16:18:24.002Z,11.4
2018-10-01T16:19:23.100Z,11.3
2018-10-01T16:20:22.416Z,11.3
2018-10-01T16:21:21.835Z,11.3
2018-10-01T16:22:20.539Z,11.3
2018-10-01T16:23:19.849Z,11.3
2018-10-01T16:24:19.170Z,11.2
2018-10-01T16:25:18.368Z,11.2
2018-10-01T16:26:17.685Z,11.2
2018-10-01T16:27:16.996Z,11.2
2018-10-01T16:28:15.807Z,11.1
2018-10-01T16:29:15.221Z,11.1
2018-10-01T16:30:14.541Z,11.1
2018-10-01T16:31:13.460Z,11
2018-10-01T16:32:12.723Z,11
2018-10-01T16:33:12.043Z,11
2018-10-01T16:34:11.148Z,11
2018-10-01T16:35:10.466Z,11
2018-10-01T16:36:09.679Z,11
2018-10-01T16:37:08.489Z,11
2018-10-01T16:38:07.981Z,11
2018-10-01T16:39:07.188Z,11
2018-10-01T16:40:05.992Z,11
2018-10-01T16:41:05.708Z,11
2018-10-01T16:42:04.572Z,11
2018-10-01T16:43:03.991Z,11
2018-10-01T16:44:02.696Z,11
2018-10-01T16:44:33.327Z,11
2018-10-01T16:45:03.737Z,11
2018-10-01T16:45:34.366Z,11
2018-10-01T16:47:00.746Z,10.9
2018-10-01T16:47:59.568Z,10.8
2018-10-01T16:48:58.776Z,10.8
2018-10-01T16:49:57.974Z,10.7
2018-10-01T16:50:57.092Z,10.7
2018-10-01T16:51:56.810Z,10.7
2018-10-01T16:52:55.625Z,10.7
2018-10-01T16:53:55.059Z,10.6
2018-10-01T16:55:53.393Z,10.6
2018-10-01T16:56:52.208Z,10.6
2018-10-01T16:57:51.415Z,10.6
2018-10-01T16:59:50.006Z,10.5
2018-10-01T17:01:48.187Z,10.5
2018-10-01T17:02:47.389Z,10.5
2018-10-01T17:03:46.599Z,10.5
2018-10-01T17:04:46.011Z,10.5
2018-10-01T17:05:44.924Z,10.5
2018-10-01T17:06:44.232Z,10.4
2018-10-01T17:07:43.459Z,10.4
2018-10-01T17:08:42.768Z,10.4
2018-10-01T17:10:40.746Z,10.4
2018-10-01T17:11:11.376Z,10.4
2018-10-01T17:11:41.490Z,10.4
2018-10-01T17:13:38.823Z,10.4
2018-10-01T17:15:36.661Z,10.3
2018-10-01T17:16:35.657Z,10.4
2018-10-01T17:17:34.869Z,10.3
2018-10-01T17:20:32.557Z,10.3
2018-10-01T17:21:02.676Z,10.3
2018-10-01T17:23:30.355Z,10.3
2018-10-01T17:25:28.461Z,10.4
2018-10-01T17:26:27.657Z,10.3
2018-10-01T17:29:25.025Z,10.4
2018-10-01T17:30:24.358Z,10.4
2018-10-01T17:31:23.692Z,10.4
2018-10-01T17:32:22.611Z,10.4
2018-10-01T17:34:21.305Z,10.4
2018-10-01T17:36:19.281Z,10.5
2018-10-01T17:37:18.485Z,10.5
2018-10-01T17:39:17.177Z,10.5
2018-10-01T17:40:15.993Z,10.5
2018-10-01T17:40:46.631Z,10.5
2018-10-01T17:42:14.528Z,10.5
2018-10-01T17:43:13.846Z,10.5
2018-10-01T17:44:12.661Z,10.5
2018-10-01T17:45:11.968Z,10.5
2018-10-01T17:46:11.065Z,10.5
2018-10-01T17:47:10.483Z,10.5
2018-10-01T17:48:09.293Z,10.4
2018-10-01T17:49:08.497Z,10.4
2018-10-01T17:50:07.824Z,10.4
2018-10-01T17:50:38.369Z,10.4
2018-10-01T17:51:08.891Z,10.4
2018-10-01T17:51:39.514Z,10.4
2018-10-01T17:52:10.198Z,10.3
2018-10-01T17:52:40.721Z,10.3
2018-10-01T17:53:11.145Z,10.3
2018-10-01T17:53:41.765Z,10.3
2018-10-01T17:54:12.627Z,10.2
2018-10-01T17:54:42.905Z,10.2
2018-10-01T17:56:02.771Z,10.2
2018-10-01T17:58:01.370Z,10.2
2018-10-01T18:00:58.753Z,10.1
2018-10-01T18:01:57.676Z,10.1
2018-10-01T18:02:27.921Z,10.1
2018-10-01T18:02:58.550Z,10.1
2018-10-01T18:03:29.172Z,10.1
2018-10-01T18:06:53.719Z,10
2018-10-01T18:07:52.818Z,10
2018-10-01T18:08:52.020Z,10
2018-10-01T18:09:51.349Z,10
2018-10-01T18:10:50.047Z,10
2018-10-01T18:11:49.476Z,10
2018-10-01T18:12:48.683Z,9.9
2018-10-01T18:13:48.105Z,9.9
2018-10-01T18:15:46.105Z,9.9
2018-10-01T18:16:45.544Z,10
2018-10-01T18:17:44.646Z,9.9
2018-10-01T18:18:43.763Z,9.9
2018-10-01T18:20:41.856Z,9.9
2018-10-01T18:21:41.215Z,9.9
2018-10-01T18:22:11.442Z,9.9
2018-10-01T18:22:41.845Z,9.9
2018-10-01T18:23:12.572Z,9.9
2018-10-01T18:23:43.330Z,9.9
2018-10-01T18:26:36.718Z,9.9
2018-10-01T18:27:35.953Z,9.9
2018-10-01T18:28:35.380Z,9.9
2018-10-01T18:29:34.692Z,9.9
2018-10-01T18:30:33.412Z,9.9
2018-10-01T18:32:32.231Z,9.9
2018-10-01T18:33:02.271Z,9.9
2018-10-01T18:33:32.905Z,9.9
2018-10-01T18:34:03.149Z,9.9
2018-10-01T18:34:33.568Z,9.8
2018-10-01T18:35:04.331Z,9.8
2018-10-01T18:36:28.710Z,9.8
2018-10-01T18:37:27.727Z,9.8
2018-10-01T18:38:27.161Z,9.8
2018-10-01T18:39:25.768Z,9.8
2018-10-01T18:40:24.989Z,9.8
2018-10-01T18:41:24.413Z,9.8
2018-10-01T18:42:23.676Z,9.8
2018-10-01T18:43:22.442Z,9.8
2018-10-01T18:43:53.072Z,9.8
2018-10-01T18:44:23.598Z,9.8
2018-10-01T18:44:54.146Z,9.8
2018-10-01T18:46:20.027Z,9.8
2018-10-01T18:47:19.133Z,9.8
2018-10-01T18:49:17.949Z,9.8
2018-10-01T18:50:16.805Z,9.8
2018-10-01T18:51:15.941Z,9.8
2018-10-01T18:52:15.365Z,9.8
2018-10-01T18:53:14.473Z,9.8
2018-10-01T18:54:13.344Z,9.7
2018-10-01T18:55:12.646Z,9.7
2018-10-01T18:56:11.564Z,9.7
2018-10-01T18:57:10.889Z,9.7
2018-10-01T18:58:10.341Z,9.6
2018-10-01T19:00:08.841Z,9.6
2018-10-01T19:01:07.414Z,9.6
2018-10-01T19:02:06.739Z,9.6
2018-10-01T19:03:05.565Z,9.6
2018-10-01T19:05:04.283Z,9.6
2018-10-01T19:06:03.241Z,9.5
2018-10-01T19:07:02.351Z,9.5
2018-10-01T19:08:01.843Z,9.5
2018-10-01T19:09:00.548Z,9.6
2018-10-01T19:09:59.761Z,9.6
2018-10-01T19:10:30.904Z,9.6
2018-10-01T19:11:00.700Z,9.5
2018-10-01T19:12:57.394Z,9.5
2018-10-01T19:13:56.829Z,9.5
2018-10-01T19:14:55.727Z,9.5
2018-10-01T19:16:54.225Z,9.5
2018-10-01T19:17:53.449Z,9.4
2018-10-01T19:18:52.531Z,9.4
2018-10-01T19:21:49.616Z,9.4
2018-10-01T19:22:48.943Z,9.4
2018-10-01T19:23:48.423Z,9.4
2018-10-01T19:25:46.601Z,9.4
2018-10-01T19:26:45.762Z,9.4
2018-10-01T19:27:44.807Z,9.4
2018-10-01T19:28:44.066Z,9.4
2018-10-01T19:31:41.639Z,9.3
2018-10-01T19:32:40.846Z,9.3
2018-10-01T19:33:39.465Z,9.3
2018-10-01T19:34:39.184Z,9.3
2018-10-01T19:35:38.058Z,9.2
2018-10-01T19:36:37.101Z,9.2
2018-10-01T19:37:36.426Z,9.2
2018-10-01T19:38:35.246Z,9.2
2018-10-01T19:39:34.464Z,9.2
2018-10-01T19:40:05.096Z,9.2
2018-10-01T19:40:35.408Z,9.1